sensor_id;sensor_type;location;lat;lon;timestamp;pressure;altitude;pressure_sealevel;temperature;humidity
26823;BME280;14852;51.910;8.878;2022-12-18T00:01:04;101086.59;;;-5.70;59.43
26823;BME280;14852;51.910;8.878;2022-12-18T00:03:33;101085.81;;;-5.69;59.48
26823;BME280;14852;51.910;8.878;2022-12-18T00:05:59;101089.19;;;-5.69;59.56
26823;BME280;14852;51.910;8.878;2022-12-18T00:08:26;101089.16;;;-5.70;59.43
26823;BME280;14852;51.910;8.878;2022-12-18T00:10:52;101101.75;;;-5.72;59.59
26823;BME280;14852;51.910;8.878;2022-12-18T00:13:18;101108.34;;;-5.75;59.63
26823;BME280;14852;51.910;8.878;2022-12-18T00:15:44;101110.69;;;-5.81;59.71
26823;BME280;14852;51.910;8.878;2022-12-18T00:18:10;101108.09;;;-5.83;59.58
26823;BME280;14852;51.910;8.878;2022-12-18T00:20:38;101105.50;;;-5.85;59.74
26823;BME280;14852;51.910;8.878;2022-12-18T00:23:06;101105.41;;;-5.88;59.36
26823;BME280;14852;51.910;8.878;2022-12-18T00:25:34;101104.50;;;-5.91;59.64
26823;BME280;14852;51.910;8.878;2022-12-18T00:28:01;101101.72;;;-5.97;59.46
26823;BME280;14852;51.910;8.878;2022-12-18T00:30:27;101098.19;;;-6.02;59.42
26823;BME280;14852;51.910;8.878;2022-12-18T00:32:54;101102.25;;;-6.06;59.77
26823;BME280;14852;51.910;8.878;2022-12-18T00:35:20;101104.69;;;-6.09;59.51
26823;BME280;14852;51.910;8.878;2022-12-18T00:37:45;101112.22;;;-6.10;59.58
26823;BME280;14852;51.910;8.878;2022-12-18T00:40:12;101117.38;;;-6.07;59.82
26823;BME280;14852;51.910;8.878;2022-12-18T00:42:38;101119.16;;;-6.05;59.91
26823;BME280;14852;51.910;8.878;2022-12-18T00:45:29;101119.38;;;-5.99;59.70
26823;BME280;14852;51.910;8.878;2022-12-18T00:47:56;101112.72;;;-5.97;59.62
26823;BME280;14852;51.910;8.878;2022-12-18T00:50:24;101112.56;;;-6.01;59.58
26823;BME280;14852;51.910;8.878;2022-12-18T00:52:50;101108.19;;;-6.05;59.49
26823;BME280;14852;51.910;8.878;2022-12-18T00:55:17;101113.25;;;-6.05;59.63
26823;BME280;14852;51.910;8.878;2022-12-18T00:57:43;101114.84;;;-6.07;59.78
26823;BME280;14852;51.910;8.878;2022-12-18T01:00:13;101114.97;;;-6.04;59.62
26823;BME280;14852;51.910;8.878;2022-12-18T01:02:42;101116.75;;;-6.02;59.86
26823;BME280;14852;51.910;8.878;2022-12-18T01:05:10;101110.91;;;-6.01;59.55
26823;BME280;14852;51.910;8.878;2022-12-18T01:07:37;101101.56;;;-6.02;59.79
26823;BME280;14852;51.910;8.878;2022-12-18T01:10:04;101100.66;;;-6.04;59.79
26823;BME280;14852;51.910;8.878;2022-12-18T01:12:30;101103.19;;;-6.04;59.60
26823;BME280;14852;51.910;8.878;2022-12-18T01:14:56;101108.31;;;-6.02;59.69
26823;BME280;14852;51.910;8.878;2022-12-18T01:17:22;101102.47;;;-6.00;59.70
26823;BME280;14852;51.910;8.878;2022-12-18T01:19:47;101114.16;;;-6.03;59.50
26823;BME280;14852;51.910;8.878;2022-12-18T01:22:13;101111.53;;;-6.06;59.72
26823;BME280;14852;51.910;8.878;2022-12-18T01:24:39;101108.81;;;-6.11;59.64
26823;BME280;14852;51.910;8.878;2022-12-18T01:27:05;101101.13;;;-6.14;59.83
26823;BME280;14852;51.910;8.878;2022-12-18T01:29:31;101105.22;;;-6.17;59.82
26823;BME280;14852;51.910;8.878;2022-12-18T01:31:57;101098.44;;;-6.18;59.63
26823;BME280;14852;51.910;8.878;2022-12-18T01:34:23;101102.69;;;-6.17;59.80
26823;BME280;14852;51.910;8.878;2022-12-18T01:36:50;101104.47;;;-6.15;59.76
26823;BME280;14852;51.910;8.878;2022-12-18T01:39:18;101103.66;;;-6.14;59.88
26823;BME280;14852;51.910;8.878;2022-12-18T01:41:44;101111.19;;;-6.15;59.71
26823;BME280;14852;51.910;8.878;2022-12-18T01:45:06;101100.91;;;-6.20;59.56
26823;BME280;14852;51.910;8.878;2022-12-18T01:47:42;101103.28;;;-6.25;59.74
26823;BME280;14852;51.910;8.878;2022-12-18T01:52:48;101096.81;;;-6.16;59.83
26823;BME280;14852;51.910;8.878;2022-12-18T01:55:18;101102.00;;;-6.13;59.76
26823;BME280;14852;51.910;8.878;2022-12-18T01:57:45;101111.25;;;-6.14;59.44
26823;BME280;14852;51.910;8.878;2022-12-18T02:00:17;101113.84;;;-6.12;59.71
26823;BME280;14852;51.910;8.878;2022-12-18T02:02:45;101112.06;;;-6.15;59.60
26823;BME280;14852;51.910;8.878;2022-12-18T02:14:28;101107.91;;;-6.13;59.82
26823;BME280;14852;51.910;8.878;2022-12-18T02:20:44;101090.69;;;-6.23;59.59
26823;BME280;14852;51.910;8.878;2022-12-18T02:23:54;101093.38;;;-6.18;59.69
26823;BME280;14852;51.910;8.878;2022-12-18T02:26:34;101095.16;;;-6.16;59.81
26823;BME280;14852;51.910;8.878;2022-12-18T02:29:13;101089.50;;;-6.09;59.76
26823;BME280;14852;51.910;8.878;2022-12-18T02:31:51;101095.66;;;-6.02;59.82
26823;BME280;14852;51.910;8.878;2022-12-18T02:34:19;101090.72;;;-5.98;59.42
26823;BME280;14852;51.910;8.878;2022-12-18T02:36:46;101094.19;;;-5.96;59.52
26823;BME280;14852;51.910;8.878;2022-12-18T02:39:16;101084.13;;;-5.94;59.64
26823;BME280;14852;51.910;8.878;2022-12-18T02:41:54;101094.31;;;-5.93;59.72
26823;BME280;14852;51.910;8.878;2022-12-18T02:44:23;101091.78;;;-5.93;59.87
26823;BME280;14852;51.910;8.878;2022-12-18T02:46:51;101087.53;;;-5.94;59.72
26823;BME280;14852;51.910;8.878;2022-12-18T02:52:55;101073.25;;;-5.92;59.64
26823;BME280;14852;51.910;8.878;2022-12-18T02:58:18;101083.16;;;-5.98;59.94
26823;BME280;14852;51.910;8.878;2022-12-18T03:03:56;101081.47;;;-5.97;59.89
26823;BME280;14852;51.910;8.878;2022-12-18T03:06:49;101089.13;;;-5.96;60.00
26823;BME280;14852;51.910;8.878;2022-12-18T03:09:39;101095.97;;;-5.93;59.84
26823;BME280;14852;51.910;8.878;2022-12-18T03:12:21;101095.84;;;-5.96;59.83
26823;BME280;14852;51.910;8.878;2022-12-18T03:17:23;101097.41;;;-6.00;59.82
26823;BME280;14852;51.910;8.878;2022-12-18T03:19:52;101086.22;;;-6.06;59.88
26823;BME280;14852;51.910;8.878;2022-12-18T03:22:20;101093.63;;;-6.11;59.67
26823;BME280;14852;51.910;8.878;2022-12-18T03:24:51;101099.34;;;-6.16;59.81
26823;BME280;14852;51.910;8.878;2022-12-18T03:27:20;101090.72;;;-6.22;60.05
26823;BME280;14852;51.910;8.878;2022-12-18T03:30:04;101088.97;;;-6.24;60.17
26823;BME280;14852;51.910;8.878;2022-12-18T03:33:02;101088.97;;;-6.24;60.10
26823;BME280;14852;51.910;8.878;2022-12-18T03:35:37;101091.38;;;-6.27;60.01
26823;BME280;14852;51.910;8.878;2022-12-18T03:38:05;101091.31;;;-6.29;59.75
26823;BME280;14852;51.910;8.878;2022-12-18T03:43:29;101093.66;;;-6.33;59.83
26823;BME280;14852;51.910;8.878;2022-12-18T03:46:30;101090.19;;;-6.37;60.16
26823;BME280;14852;51.910;8.878;2022-12-18T03:49:09;101084.13;;;-6.40;59.80
26823;BME280;14852;51.910;8.878;2022-12-18T03:51:50;101079.75;;;-6.44;59.93
26823;BME280;14852;51.910;8.878;2022-12-18T03:54:19;101076.09;;;-6.52;60.00
26823;BME280;14852;51.910;8.878;2022-12-18T03:57:07;101089.31;;;-6.60;59.88
26823;BME280;14852;51.910;8.878;2022-12-18T03:59:37;101093.47;;;-6.62;60.04
26823;BME280;14852;51.910;8.878;2022-12-18T04:02:07;101102.13;;;-6.55;60.01
26823;BME280;14852;51.910;8.878;2022-12-18T04:04:38;101101.63;;;-6.46;59.85
26823;BME280;14852;51.910;8.878;2022-12-18T04:07:05;101093.34;;;-6.42;59.95
26823;BME280;14852;51.910;8.878;2022-12-18T04:09:34;101097.78;;;-6.37;59.83
26823;BME280;14852;51.910;8.878;2022-12-18T04:12:03;101098.78;;;-6.32;59.87
26823;BME280;14852;51.910;8.878;2022-12-18T04:14:29;101092.25;;;-6.27;59.74
26823;BME280;14852;51.910;8.878;2022-12-18T04:16:56;101087.38;;;-6.21;59.70
26823;BME280;14852;51.910;8.878;2022-12-18T04:19:27;101085.72;;;-6.20;59.69
26823;BME280;14852;51.910;8.878;2022-12-18T04:21:54;101085.72;;;-6.20;59.58
26823;BME280;14852;51.910;8.878;2022-12-18T04:24:20;101079.78;;;-6.21;59.87
26823;BME280;14852;51.910;8.878;2022-12-18T04:26:57;101072.31;;;-6.17;59.82
26823;BME280;14852;51.910;8.878;2022-12-18T04:29:26;101092.81;;;-6.10;59.76
26823;BME280;14852;51.910;8.878;2022-12-18T04:31:52;101092.13;;;-6.06;59.83
26823;BME280;14852;51.910;8.878;2022-12-18T04:34:20;101095.66;;;-6.02;59.84
26823;BME280;14852;51.910;8.878;2022-12-18T04:36:50;101096.56;;;-6.00;59.91
26823;BME280;14852;51.910;8.878;2022-12-18T04:39:17;101100.78;;;-5.99;59.86
26823;BME280;14852;51.910;8.878;2022-12-18T04:41:44;101104.16;;;-6.00;59.88
26823;BME280;14852;51.910;8.878;2022-12-18T04:44:11;101104.19;;;-5.99;59.79
26823;BME280;14852;51.910;8.878;2022-12-18T04:46:37;101111.09;;;-5.95;59.91
26823;BME280;14852;51.910;8.878;2022-12-18T04:49:03;101115.34;;;-5.94;59.82
26823;BME280;14852;51.910;8.878;2022-12-18T04:51:29;101114.50;;;-5.94;59.90
26823;BME280;14852;51.910;8.878;2022-12-18T04:53:55;101116.03;;;-5.98;59.89
26823;BME280;14852;51.910;8.878;2022-12-18T04:56:21;101105.88;;;-5.99;59.77
26823;BME280;14852;51.910;8.878;2022-12-18T04:58:47;101105.00;;;-6.00;59.91
26823;BME280;14852;51.910;8.878;2022-12-18T05:01:15;101110.91;;;-5.99;59.90
26823;BME280;14852;51.910;8.878;2022-12-18T05:03:42;101103.19;;;-6.04;59.93
26823;BME280;14852;51.910;8.878;2022-12-18T05:06:08;101100.47;;;-6.08;59.95
26823;BME280;14852;51.910;8.878;2022-12-18T05:08:34;101108.00;;;-6.10;60.05
26823;BME280;14852;51.910;8.878;2022-12-18T05:11:07;101103.72;;;-6.12;59.93
26823;BME280;14852;51.910;8.878;2022-12-18T05:13:35;101106.94;;;-6.16;59.97
26823;BME280;14852;51.910;8.878;2022-12-18T05:16:01;101110.22;;;-6.19;59.98
26823;BME280;14852;51.910;8.878;2022-12-18T05:18:27;101106.75;;;-6.21;59.78
26823;BME280;14852;51.910;8.878;2022-12-18T05:20:54;101094.06;;;-6.23;59.98
26823;BME280;14852;51.910;8.878;2022-12-18T05:23:22;101088.16;;;-6.23;60.08
26823;BME280;14852;51.910;8.878;2022-12-18T05:25:52;101088.19;;;-6.22;59.89
26823;BME280;14852;51.910;8.878;2022-12-18T05:28:18;101089.91;;;-6.21;59.78
26823;BME280;14852;51.910;8.878;2022-12-18T05:30:55;101087.38;;;-6.21;59.81
26823;BME280;14852;51.910;8.878;2022-12-18T05:33:23;101078.94;;;-6.21;59.78
26823;BME280;14852;51.910;8.878;2022-12-18T05:35:55;101089.84;;;-6.22;59.98
26823;BME280;14852;51.910;8.878;2022-12-18T05:38:22;101089.16;;;-6.18;59.91
26823;BME280;14852;51.910;8.878;2022-12-18T05:40:50;101091.88;;;-6.13;59.79
26823;BME280;14852;51.910;8.878;2022-12-18T05:43:17;101093.69;;;-6.09;59.92
26823;BME280;14852;51.910;8.878;2022-12-18T05:45:43;101097.19;;;-6.06;59.83
26823;BME280;14852;51.910;8.878;2022-12-18T05:48:09;101099.00;;;-6.03;59.61
26823;BME280;14852;51.910;8.878;2022-12-18T05:50:40;101104.16;;;-6.00;59.77
26823;BME280;14852;51.910;8.878;2022-12-18T05:53:07;101099.03;;;-6.02;59.90
26823;BME280;14852;51.910;8.878;2022-12-18T05:55:38;101102.31;;;-6.04;59.83
26823;BME280;14852;51.910;8.878;2022-12-18T05:58:06;101101.47;;;-6.05;59.77
26823;BME280;14852;51.910;8.878;2022-12-18T06:00:35;101091.28;;;-6.06;59.94
26823;BME280;14852;51.910;8.878;2022-12-18T06:03:02;101094.56;;;-6.09;59.70
26823;BME280;14852;51.910;8.878;2022-12-18T06:05:28;101098.75;;;-6.09;59.58
26823;BME280;14852;51.910;8.878;2022-12-18T06:07:54;101107.91;;;-6.13;59.89
26823;BME280;14852;51.910;8.878;2022-12-18T06:10:19;101102.75;;;-6.16;60.09
26823;BME280;14852;51.910;8.878;2022-12-18T06:12:45;101108.78;;;-6.12;60.14
26823;BME280;14852;51.910;8.878;2022-12-18T06:15:11;101102.94;;;-6.10;59.91
26823;BME280;14852;51.910;8.878;2022-12-18T06:17:37;101104.84;;;-6.04;60.14
26823;BME280;14852;51.910;8.878;2022-12-18T06:20:04;101109.25;;;-5.99;59.83
26823;BME280;14852;51.910;8.878;2022-12-18T06:22:33;101100.13;;;-5.95;59.96
26823;BME280;14852;51.910;8.878;2022-12-18T06:25:00;101106.03;;;-5.95;59.77
26823;BME280;14852;51.910;8.878;2022-12-18T06:27:26;101111.09;;;-5.95;59.86
26823;BME280;14852;51.910;8.878;2022-12-18T06:29:52;101107.75;;;-5.94;60.00
26823;BME280;14852;51.910;8.878;2022-12-18T06:32:18;101117.13;;;-5.91;59.81
26823;BME280;14852;51.910;8.878;2022-12-18T06:34:44;101121.50;;;-5.86;60.13
26823;BME280;14852;51.910;8.878;2022-12-18T06:37:09;101118.34;;;-5.80;59.74
26823;BME280;14852;51.910;8.878;2022-12-18T06:39:35;101114.28;;;-5.75;59.76
26823;BME280;14852;51.910;8.878;2022-12-18T06:42:01;101121.13;;;-5.72;59.70
26823;BME280;14852;51.910;8.878;2022-12-18T06:44:27;101118.66;;;-5.71;59.89
26823;BME280;14852;51.910;8.878;2022-12-18T06:46:52;101125.44;;;-5.70;59.86
26823;BME280;14852;51.910;8.878;2022-12-18T06:49:18;101126.38;;;-5.68;59.97
26823;BME280;14852;51.910;8.878;2022-12-18T06:51:44;101134.09;;;-5.63;60.08
26823;BME280;14852;51.910;8.878;2022-12-18T06:54:10;101132.44;;;-5.63;59.86
26823;BME280;14852;51.910;8.878;2022-12-18T06:56:36;101129.97;;;-5.61;59.78
26823;BME280;14852;51.910;8.878;2022-12-18T06:59:01;101138.47;;;-5.59;59.88
26823;BME280;14852;51.910;8.878;2022-12-18T07:01:27;101135.94;;;-5.59;59.99
26823;BME280;14852;51.910;8.878;2022-12-18T07:03:55;101138.41;;;-5.61;60.13
26823;BME280;14852;51.910;8.878;2022-12-18T07:06:23;101140.94;;;-5.61;60.00
26823;BME280;14852;51.910;8.878;2022-12-18T07:08:50;101138.34;;;-5.62;60.22
26823;BME280;14852;51.910;8.878;2022-12-18T07:11:17;101138.31;;;-5.64;60.12
26823;BME280;14852;51.910;8.878;2022-12-18T07:13:44;101141.69;;;-5.63;60.24
26823;BME280;14852;51.910;8.878;2022-12-18T07:16:13;101140.19;;;-5.58;60.14
26823;BME280;14852;51.910;8.878;2022-12-18T07:18:40;101148.72;;;-5.56;59.83
26823;BME280;14852;51.910;8.878;2022-12-18T07:21:08;101142.03;;;-5.54;60.03
26823;BME280;14852;51.910;8.878;2022-12-18T07:23:35;101147.13;;;-5.53;60.08
26823;BME280;14852;51.910;8.878;2022-12-18T07:26:07;101134.53;;;-5.51;59.93
26823;BME280;14852;51.910;8.878;2022-12-18T07:28:35;101136.38;;;-5.47;60.13
26823;BME280;14852;51.910;8.878;2022-12-18T07:31:06;101138.16;;;-5.44;59.94
26823;BME280;14852;51.910;8.878;2022-12-18T07:33:33;101136.53;;;-5.42;60.04
26823;BME280;14852;51.910;8.878;2022-12-18T07:36:00;101137.53;;;-5.37;60.03
26823;BME280;14852;51.910;8.878;2022-12-18T07:38:27;101127.56;;;-5.33;60.22
26823;BME280;14852;51.910;8.878;2022-12-18T07:40:52;101126.91;;;-5.27;60.21
26823;BME280;14852;51.910;8.878;2022-12-18T07:43:18;101125.34;;;-5.24;60.33
26823;BME280;14852;51.910;8.878;2022-12-18T07:45:44;101128.03;;;-5.19;60.29
26823;BME280;14852;51.910;8.878;2022-12-18T07:48:10;101122.22;;;-5.15;60.18
26823;BME280;14852;51.910;8.878;2022-12-18T07:50:37;101130.91;;;-5.08;60.45
26823;BME280;14852;51.910;8.878;2022-12-18T07:53:03;101141.22;;;-5.02;60.33
26823;BME280;14852;51.910;8.878;2022-12-18T07:55:31;101139.78;;;-4.94;60.30
26823;BME280;14852;51.910;8.878;2022-12-18T07:58:01;101130.69;;;-4.89;60.40
26823;BME280;14852;51.910;8.878;2022-12-18T08:00:27;101123.25;;;-4.83;60.21
26823;BME280;14852;51.910;8.878;2022-12-18T08:02:53;101123.47;;;-4.77;60.35
26823;BME280;14852;51.910;8.878;2022-12-18T08:05:18;101119.41;;;-4.70;60.38
26823;BME280;14852;51.910;8.878;2022-12-18T08:07:46;101131.44;;;-4.65;60.17
26823;BME280;14852;51.910;8.878;2022-12-18T08:10:13;101125.78;;;-4.56;60.66
26823;BME280;14852;51.910;8.878;2022-12-18T08:12:39;101131.06;;;-4.50;60.24
26823;BME280;14852;51.910;8.878;2022-12-18T08:15:05;101130.41;;;-4.43;60.13
26823;BME280;14852;51.910;8.878;2022-12-18T08:17:31;101128.03;;;-4.37;60.11
26823;BME280;14852;51.910;8.878;2022-12-18T08:19:57;101129.97;;;-4.30;60.37
26823;BME280;14852;51.910;8.878;2022-12-18T08:22:23;101116.63;;;-4.23;60.37
26823;BME280;14852;51.910;8.878;2022-12-18T08:24:48;101119.44;;;-4.14;60.36
26823;BME280;14852;51.910;8.878;2022-12-18T08:27:14;101110.41;;;-4.04;60.03
26823;BME280;14852;51.910;8.878;2022-12-18T08:29:40;101103.13;;;-3.92;60.16
26823;BME280;14852;51.910;8.878;2022-12-18T08:32:06;101102.56;;;-3.82;59.93
26823;BME280;14852;51.910;8.878;2022-12-18T08:34:32;101101.19;;;-3.69;60.20
26823;BME280;14852;51.910;8.878;2022-12-18T08:36:58;101102.38;;;-3.58;59.92
26823;BME280;14852;51.910;8.878;2022-12-18T08:39:24;101094.22;;;-3.45;59.81
26823;BME280;14852;51.910;8.878;2022-12-18T08:41:50;101089.44;;;-3.33;60.18
26823;BME280;14852;51.910;8.878;2022-12-18T08:44:34;101091.44;;;-3.21;59.79
26823;BME280;14852;51.910;8.878;2022-12-18T08:47:03;101091.69;;;-3.12;60.07
26823;BME280;14852;51.910;8.878;2022-12-18T08:49:29;101093.59;;;-3.02;59.80
26823;BME280;14852;51.910;8.878;2022-12-18T08:51:56;101087.88;;;-2.93;59.81
26823;BME280;14852;51.910;8.878;2022-12-18T08:54:26;101084.72;;;-2.83;59.82
26823;BME280;14852;51.910;8.878;2022-12-18T08:56:52;101090.03;;;-2.72;59.67
26823;BME280;14852;51.910;8.878;2022-12-18T08:59:18;101094.44;;;-2.65;59.64
26823;BME280;14852;51.910;8.878;2022-12-18T09:01:45;101096.31;;;-2.58;59.91
26823;BME280;14852;51.910;8.878;2022-12-18T09:04:12;101093.06;;;-2.51;59.56
26823;BME280;14852;51.910;8.878;2022-12-18T09:06:38;101086.47;;;-2.43;59.69
26823;BME280;14852;51.910;8.878;2022-12-18T09:09:05;101085.75;;;-2.36;59.69
26823;BME280;14852;51.910;8.878;2022-12-18T09:11:32;101085.81;;;-2.33;59.71
26823;BME280;14852;51.910;8.878;2022-12-18T09:14:00;101087.63;;;-2.27;59.58
26823;BME280;14852;51.910;8.878;2022-12-18T09:16:27;101091.09;;;-2.24;59.36
26823;BME280;14852;51.910;8.878;2022-12-18T09:18:55;101098.84;;;-2.17;59.51
26823;BME280;14852;51.910;8.878;2022-12-18T09:21:27;101089.63;;;-2.12;59.48
26823;BME280;14852;51.910;8.878;2022-12-18T09:23:55;101087.19;;;-2.08;59.31
26823;BME280;14852;51.910;8.878;2022-12-18T09:26:22;101086.41;;;-2.04;59.30
26823;BME280;14852;51.910;8.878;2022-12-18T09:28:49;101086.50;;;-1.99;59.36
26823;BME280;14852;51.910;8.878;2022-12-18T09:31:18;101085.03;;;-1.88;58.97
26823;BME280;14852;51.910;8.878;2022-12-18T09:33:44;101088.59;;;-1.78;58.93
26823;BME280;14852;51.910;8.878;2022-12-18T09:36:16;101093.84;;;-1.69;58.93
26823;BME280;14852;51.910;8.878;2022-12-18T09:38:42;101091.44;;;-1.63;58.65
26823;BME280;14852;51.910;8.878;2022-12-18T09:41:31;101083.03;;;-1.58;58.71
26823;BME280;14852;51.910;8.878;2022-12-18T09:44:39;101084.84;;;-1.52;58.50
26823;BME280;14852;51.910;8.878;2022-12-18T09:49:42;101083.13;;;-1.53;58.48
26823;BME280;14852;51.910;8.878;2022-12-18T09:52:39;101084.06;;;-1.47;58.49
26823;BME280;14852;51.910;8.878;2022-12-18T09:55:36;101087.59;;;-1.40;58.48
26823;BME280;14852;51.910;8.878;2022-12-18T09:58:32;101090.38;;;-1.28;58.51
26823;BME280;14852;51.910;8.878;2022-12-18T10:01:00;101092.22;;;-1.19;58.30
26823;BME280;14852;51.910;8.878;2022-12-18T10:03:26;101088.84;;;-1.15;58.29
26823;BME280;14852;51.910;8.878;2022-12-18T10:06:18;101082.16;;;-1.10;58.37
26823;BME280;14852;51.910;8.878;2022-12-18T10:08:51;101078.84;;;-1.04;57.99
26823;BME280;14852;51.910;8.878;2022-12-18T10:17:58;101078.91;;;-1.00;57.97
26823;BME280;14852;51.910;8.878;2022-12-18T10:20:43;101081.34;;;-1.07;57.82
26823;BME280;14852;51.910;8.878;2022-12-18T10:23:29;101081.28;;;-1.11;58.23
26823;BME280;14852;51.910;8.878;2022-12-18T10:26:10;101071.06;;;-1.12;58.03
26823;BME280;14852;51.910;8.878;2022-12-18T10:28:39;101075.44;;;-1.05;58.87
26823;BME280;14852;51.910;8.878;2022-12-18T10:31:07;101052.59;;;-0.35;59.27
26823;BME280;14852;51.910;8.878;2022-12-18T10:33:34;101044.13;;;0.49;58.89
26823;BME280;14852;51.910;8.878;2022-12-18T10:36:00;101028.41;;;1.11;57.04
26823;BME280;14852;51.910;8.878;2022-12-18T10:38:29;101016.59;;;1.34;55.91
26823;BME280;14852;51.910;8.878;2022-12-18T10:41:03;101006.38;;;1.35;55.17
26823;BME280;14852;51.910;8.878;2022-12-18T10:43:38;101019.19;;;1.37;55.31
26823;BME280;14852;51.910;8.878;2022-12-18T10:51:31;100991.13;;;1.64;55.04
26823;BME280;14852;51.910;8.878;2022-12-18T10:54:28;100985.19;;;1.77;54.05
26823;BME280;14852;51.910;8.878;2022-12-18T10:57:19;100980.06;;;1.87;54.51
26823;BME280;14852;51.910;8.878;2022-12-18T10:59:56;100987.75;;;1.76;54.18
26823;BME280;14852;51.910;8.878;2022-12-18T11:02:37;100977.41;;;1.52;53.63
26823;BME280;14852;51.910;8.878;2022-12-18T11:05:28;100978.19;;;1.32;54.36
26823;BME280;14852;51.910;8.878;2022-12-18T11:07:55;100986.59;;;1.08;53.87
26823;BME280;14852;51.910;8.878;2022-12-18T11:10:32;100989.88;;;0.88;53.79
26823;BME280;14852;51.910;8.878;2022-12-18T11:13:17;100980.44;;;0.79;54.01
26823;BME280;14852;51.910;8.878;2022-12-18T11:15:44;100967.63;;;0.76;54.06
26823;BME280;14852;51.910;8.878;2022-12-18T11:18:32;100964.25;;;0.79;54.23
26823;BME280;14852;51.910;8.878;2022-12-18T11:21:11;100952.25;;;0.73;54.31
26823;BME280;14852;51.910;8.878;2022-12-18T11:23:52;100956.47;;;0.65;54.23
26823;BME280;14852;51.910;8.878;2022-12-18T11:26:18;100953.00;;;0.55;54.03
26823;BME280;14852;51.910;8.878;2022-12-18T11:29:10;100929.91;;;0.49;54.36
26823;BME280;14852;51.910;8.878;2022-12-18T11:31:36;100928.19;;;0.42;54.33
26823;BME280;14852;51.910;8.878;2022-12-18T11:34:14;100914.53;;;0.40;54.54
26823;BME280;14852;51.910;8.878;2022-12-18T11:36:46;100916.19;;;0.33;54.30
26823;BME280;14852;51.910;8.878;2022-12-18T11:39:24;100921.25;;;0.29;54.52
26823;BME280;14852;51.910;8.878;2022-12-18T11:41:59;100936.59;;;0.29;54.28
26823;BME280;14852;51.910;8.878;2022-12-18T11:44:48;100919.56;;;0.29;54.75
26823;BME280;14852;51.910;8.878;2022-12-18T11:47:28;100920.44;;;0.31;54.74
26823;BME280;14852;51.910;8.878;2022-12-18T11:50:00;100914.41;;;0.26;54.85
26823;BME280;14852;51.910;8.878;2022-12-18T11:52:47;100905.06;;;0.28;54.50
26823;BME280;14852;51.910;8.878;2022-12-18T11:55:16;100906.72;;;0.25;54.52
26823;BME280;14852;51.910;8.878;2022-12-18T12:04:11;100894.88;;;0.33;54.58
26823;BME280;14852;51.910;8.878;2022-12-18T12:07:02;100906.78;;;0.31;54.17
26823;BME280;14852;51.910;8.878;2022-12-18T12:12:57;100900.84;;;0.32;54.48
26823;BME280;14852;51.910;8.878;2022-12-18T12:15:51;100882.09;;;0.33;54.48
26823;BME280;14852;51.910;8.878;2022-12-18T12:21:52;100879.59;;;0.41;54.92
26823;BME280;14852;51.910;8.878;2022-12-18T12:27:42;100854.91;;;0.44;54.75
26823;BME280;14852;51.910;8.878;2022-12-18T12:30:24;100863.44;;;0.48;54.78
26823;BME280;14852;51.910;8.878;2022-12-18T12:33:10;100864.31;;;0.51;54.66
26823;BME280;14852;51.910;8.878;2022-12-18T12:36:30;100851.53;;;0.53;54.75
26823;BME280;14852;51.910;8.878;2022-12-18T12:39:06;100851.56;;;0.54;54.37
26823;BME280;14852;51.910;8.878;2022-12-18T12:41:34;100848.13;;;0.52;54.44
26823;BME280;14852;51.910;8.878;2022-12-18T12:44:32;100843.91;;;0.57;54.62
26823;BME280;14852;51.910;8.878;2022-12-18T12:47:09;100853.25;;;0.58;54.54
26823;BME280;14852;51.910;8.878;2022-12-18T12:52:34;100862.66;;;0.61;54.83
26823;BME280;14852;51.910;8.878;2022-12-18T12:55:05;100855.00;;;0.62;54.73
26823;BME280;14852;51.910;8.878;2022-12-18T12:57:40;100867.78;;;0.62;54.59
26823;BME280;14852;51.910;8.878;2022-12-18T13:00:15;100851.59;;;0.65;54.35
26823;BME280;14852;51.910;8.878;2022-12-18T13:08:30;100849.06;;;0.69;54.64
26823;BME280;14852;51.910;8.878;2022-12-18T13:10:58;100843.09;;;0.70;54.56
26823;BME280;14852;51.910;8.878;2022-12-18T13:13:55;100843.94;;;0.69;54.67
26823;BME280;14852;51.910;8.878;2022-12-18T13:16:24;100851.63;;;0.71;54.31
26823;BME280;14852;51.910;8.878;2022-12-18T13:18:57;100843.13;;;0.73;54.25
26823;BME280;14852;51.910;8.878;2022-12-18T13:21:33;100842.28;;;0.76;54.20
26823;BME280;14852;51.910;8.878;2022-12-18T13:24:23;100828.66;;;0.79;54.29
26823;BME280;14852;51.910;8.878;2022-12-18T13:26:50;100821.84;;;0.78;54.40
26823;BME280;14852;51.910;8.878;2022-12-18T13:29:45;100821.00;;;0.80;54.29
26823;BME280;14852;51.910;8.878;2022-12-18T13:32:23;100821.84;;;0.82;54.02
26823;BME280;14852;51.910;8.878;2022-12-18T13:37:54;100825.28;;;0.86;54.08
26823;BME280;14852;51.910;8.878;2022-12-18T13:48:37;100792.88;;;0.86;53.92
26823;BME280;14852;51.910;8.878;2022-12-18T13:51:09;100774.94;;;0.85;53.92
26823;BME280;14852;51.910;8.878;2022-12-18T13:53:43;100777.50;;;0.86;53.73
26823;BME280;14852;51.910;8.878;2022-12-18T13:56:09;100769.84;;;0.89;53.78
26823;BME280;14852;51.910;8.878;2022-12-18T13:58:40;100777.53;;;0.89;53.74
26823;BME280;14852;51.910;8.878;2022-12-18T14:01:22;100766.44;;;0.90;53.62
26823;BME280;14852;51.910;8.878;2022-12-18T14:03:49;100767.28;;;0.89;53.62
26823;BME280;14852;51.910;8.878;2022-12-18T14:06:17;100780.97;;;0.91;53.39
26823;BME280;14852;51.910;8.878;2022-12-18T14:08:44;100764.72;;;0.94;53.51
26823;BME280;14852;51.910;8.878;2022-12-18T14:11:22;100761.34;;;0.96;53.36
26823;BME280;14852;51.910;8.878;2022-12-18T14:13:49;100764.75;;;0.95;53.50
26823;BME280;14852;51.910;8.878;2022-12-18T14:16:16;100756.22;;;0.95;53.20
26823;BME280;14852;51.910;8.878;2022-12-18T14:18:55;100747.69;;;0.94;53.55
26823;BME280;14852;51.910;8.878;2022-12-18T14:21:31;100742.56;;;0.96;53.65
26823;BME280;14852;51.910;8.878;2022-12-18T14:24:21;100754.50;;;0.95;53.27
26823;BME280;14852;51.910;8.878;2022-12-18T14:26:48;100745.97;;;0.93;53.38
26823;BME280;14852;51.910;8.878;2022-12-18T14:29:21;100764.75;;;0.97;53.31
26823;BME280;14852;51.910;8.878;2022-12-18T14:32:15;100763.91;;;0.99;53.34
26823;BME280;14852;51.910;8.878;2022-12-18T14:34:53;100757.94;;;0.99;53.32
26823;BME280;14852;51.910;8.878;2022-12-18T14:37:25;100756.22;;;0.99;53.38